createdAt,value
2019-04-03T00:00:13.985Z,22.5
2019-04-03T00:01:06.418Z,22.4
2019-04-03T00:01:53.862Z,22.4
2019-04-03T00:02:43.126Z,22.5
2019-04-03T00:03:36.550Z,22.4
2019-04-03T00:04:23.125Z,22.5
2019-04-03T00:05:13.784Z,22.4
2019-04-03T00:06:07.115Z,22.5
2019-04-03T00:06:52.963Z,22.4
2019-04-03T00:07:44.486Z,22.5
2019-04-03T00:08:48.616Z,22.4
2019-04-03T00:09:23.121Z,22.4
2019-04-03T00:10:14.610Z,22.4
2019-04-03T00:11:05.086Z,22.4
2019-04-03T00:11:53.883Z,22.4
2019-04-03T00:12:48.299Z,22.4
2019-04-03T00:13:34.913Z,22.4
2019-04-03T00:14:24.499Z,22.4
2019-04-03T00:15:17.292Z,22.4
2019-04-03T00:16:04.675Z,22.4
2019-04-03T00:16:55.128Z,22.4
2019-04-03T00:17:48.252Z,22.4
2019-04-03T00:18:34.924Z,22.4
2019-04-03T00:19:24.940Z,22.4
2019-04-03T00:20:13.850Z,22.4
2019-04-03T00:21:05.078Z,22.4
2019-04-03T00:21:57.684Z,22.4
2019-04-03T00:22:52.717Z,22.4
2019-04-03T00:23:35.231Z,22.4
2019-04-03T00:24:28.540Z,22.4
2019-04-03T00:25:15.041Z,22.4
2019-04-03T00:26:05.904Z,22.4
2019-04-03T00:26:58.707Z,22.4
2019-04-03T00:27:45.537Z,22.4
2019-04-03T00:28:35.391Z,22.4
2019-04-03T00:29:28.804Z,22.4
2019-04-03T00:30:16.292Z,22.4
2019-04-03T00:31:06.541Z,22.4
2019-04-03T00:31:59.416Z,22.4
2019-04-03T00:32:46.066Z,22.4
2019-04-03T00:33:35.558Z,22.4
2019-04-03T00:34:28.841Z,22.4
2019-04-03T00:35:15.866Z,22.4
2019-04-03T00:36:06.668Z,22.4
2019-04-03T00:36:59.670Z,22.4
2019-04-03T00:37:46.578Z,22.4
2019-04-03T00:38:36.593Z,22.4
2019-04-03T00:39:29.247Z,22.4
2019-04-03T00:40:17.106Z,22.4
2019-04-03T00:41:06.721Z,22.4
2019-04-03T00:41:59.201Z,22.4
2019-04-03T00:42:46.613Z,22.4
2019-04-03T00:43:36.936Z,22.4
2019-04-03T00:44:29.926Z,22.4
2019-04-03T00:45:16.818Z,22.4
2019-04-03T00:46:06.491Z,22.4
2019-04-03T00:47:00.165Z,22.4
2019-04-03T00:47:46.658Z,22.4
2019-04-03T00:48:37.570Z,22.4
2019-04-03T00:49:30.488Z,22.4
2019-04-03T00:50:17.475Z,22.4
2019-04-03T00:51:08.232Z,22.4
2019-04-03T00:52:00.545Z,22.4
2019-04-03T00:52:48.007Z,22.4
2019-04-03T00:53:37.415Z,22.4
2019-04-03T00:54:34.339Z,22.4
2019-04-03T00:55:18.316Z,22.4
2019-04-03T00:56:07.848Z,22.4
2019-04-03T00:57:01.070Z,22.4
2019-04-03T00:57:48.635Z,22.4
2019-04-03T00:58:38.303Z,22.4
2019-04-03T00:59:31.228Z,22.4
2019-04-03T01:00:17.885Z,22.4
2019-04-03T01:01:08.101Z,22.4
2019-04-03T01:02:01.015Z,22.4
2019-04-03T01:02:47.876Z,22.4
2019-04-03T01:03:38.257Z,22.4
2019-04-03T01:04:31.217Z,22.4
2019-04-03T01:05:18.965Z,22.4
2019-04-03T01:06:08.224Z,22.3
2019-04-03T01:07:01.402Z,22.4
2019-04-03T01:07:49.456Z,22.4
2019-04-03T01:08:38.218Z,22.3
2019-04-03T01:09:32.047Z,22.3
2019-04-03T01:10:18.579Z,22.4
2019-04-03T01:11:08.420Z,22.3
2019-04-03T01:12:01.694Z,22.3
2019-04-03T01:12:48.847Z,22.3
2019-04-03T01:13:39.329Z,22.3
2019-04-03T01:14:32.761Z,22.3
2019-04-03T01:15:19.404Z,22.3
2019-04-03T01:16:09.754Z,22.3
2019-04-03T01:16:59.756Z,22.3
2019-04-03T01:17:49.201Z,22.3
2019-04-03T01:18:41.489Z,22.3
2019-04-03T01:19:29.686Z,22.3
2019-04-03T01:20:18.426Z,22.3
2019-04-03T01:21:12.407Z,22.3
2019-04-03T01:21:58.835Z,22.3
2019-04-03T01:22:49.026Z,22.3
2019-04-03T01:23:42.624Z,22.3
2019-04-03T01:24:29.826Z,22.3
2019-04-03T01:25:18.842Z,22.3
2019-04-03T01:26:13.483Z,22.3
2019-04-03T01:27:00.382Z,22.3
2019-04-03T01:27:50.623Z,22.3
2019-04-03T01:28:43.638Z,22.3
2019-04-03T01:29:29.805Z,22.3
2019-04-03T01:30:21.891Z,22.3
2019-04-03T01:31:10.071Z,22.3
2019-04-03T01:32:00.416Z,22.3
2019-04-03T01:32:53.665Z,22.3
2019-04-03T01:33:40.888Z,22.3
2019-04-03T01:34:30.418Z,22.3
2019-04-03T01:35:23.779Z,22.3
2019-04-03T01:36:10.568Z,22.3
2019-04-03T01:37:00.430Z,22.3
2019-04-03T01:37:53.354Z,22.3
2019-04-03T01:38:41.597Z,22.3
2019-04-03T01:39:30.173Z,22.3
2019-04-03T01:40:23.935Z,22.3
2019-04-03T01:41:11.063Z,22.3
2019-04-03T01:42:00.983Z,22.3
2019-04-03T01:42:54.539Z,22.3
2019-04-03T01:43:40.310Z,22.3
2019-04-03T01:44:32.402Z,22.3
2019-04-03T01:45:21.149Z,22.3
2019-04-03T01:46:11.453Z,22.3
2019-04-03T01:47:04.013Z,22.3
2019-04-03T01:47:50.550Z,22.3
2019-04-03T01:48:41.251Z,22.3
2019-04-03T01:49:35.016Z,22.3
2019-04-03T01:50:21.647Z,22.3
2019-04-03T01:51:10.907Z,22.3
2019-04-03T01:52:05.345Z,22.3
2019-04-03T01:52:51.173Z,22.3
2019-04-03T01:53:41.885Z,22.3
2019-04-03T01:54:35.172Z,22.3
2019-04-03T01:55:21.437Z,22.3
2019-04-03T01:56:12.982Z,22.3
2019-04-03T01:57:02.838Z,22.3
2019-04-03T01:57:51.967Z,22.3
2019-04-03T01:58:43.171Z,22.3
2019-04-03T01:59:32.725Z,22.3
2019-04-03T02:00:21.867Z,22.3
2019-04-03T02:01:14.801Z,22.3
2019-04-03T02:02:02.552Z,22.2
2019-04-03T02:02:52.641Z,22.2
2019-04-03T02:03:45.375Z,22.2
2019-04-03T02:04:32.767Z,22.2
2019-04-03T02:05:22.034Z,22.2
2019-04-03T02:06:15.972Z,22.2
2019-04-03T02:07:02.115Z,22.2
2019-04-03T02:07:52.901Z,22.2
2019-04-03T02:08:45.692Z,22.2
2019-04-03T02:09:32.419Z,22.2
2019-04-03T02:10:24.746Z,22.2
2019-04-03T02:11:12.931Z,22.2
2019-04-03T02:12:03.649Z,22.2
2019-04-03T02:12:57.117Z,22.2
2019-04-03T02:13:43.613Z,22.2
2019-04-03T02:14:33.222Z,22.2
2019-04-03T02:15:26.583Z,22.2
2019-04-03T02:16:13.286Z,22.2
2019-04-03T02:17:03.659Z,22.2
2019-04-03T02:17:56.471Z,22.2
2019-04-03T02:18:44.516Z,22.2
2019-04-03T02:19:34.677Z,22.2
2019-04-03T02:20:27.757Z,22.2
2019-04-03T02:21:14.195Z,22.2
2019-04-03T02:22:05.356Z,22.2
2019-04-03T02:22:53.578Z,22.2
2019-04-03T02:23:44.026Z,22.2
2019-04-03T02:24:38.060Z,22.2
2019-04-03T02:25:24.113Z,22.1
2019-04-03T02:26:14.322Z,22.1
2019-04-03T02:27:06.687Z,22.1
2019-04-03T02:27:53.444Z,22.1
2019-04-03T02:28:43.080Z,22.1
2019-04-03T02:29:33.748Z,22.1
2019-04-03T02:30:24.729Z,22.1
2019-04-03T02:31:20.702Z,22.1
2019-04-03T02:32:04.442Z,22.1
2019-04-03T02:33:00.533Z,22.1
2019-04-03T02:33:44.854Z,22.1
2019-04-03T02:34:40.729Z,22.1
2019-04-03T02:35:24.937Z,22.1
2019-04-03T02:36:19.661Z,22.1
2019-04-03T02:37:04.773Z,22.1
2019-04-03T02:37:57.259Z,22.1
2019-04-03T02:38:45.504Z,22.1
2019-04-03T02:39:34.803Z,22.1
2019-04-03T02:40:25.312Z,22.1
2019-04-03T02:41:14.606Z,22.1
2019-04-03T02:42:11.644Z,22.1
2019-04-03T02:42:55.586Z,22.1
2019-04-03T02:43:51.625Z,22.1
2019-04-03T02:44:35.803Z,22.1
2019-04-03T02:45:31.610Z,22.1
2019-04-03T02:46:16.263Z,22.1
2019-04-03T02:47:08.437Z,22.1
2019-04-03T02:47:57.095Z,22.1
2019-04-03T02:48:44.967Z,22.1
2019-04-03T02:49:35.127Z,22.1
2019-04-03T02:50:27.225Z,22.1
2019-04-03T02:51:20.565Z,22.1
2019-04-03T02:52:06.633Z,22.1
2019-04-03T02:53:02.480Z,22.1
2019-04-03T02:53:47.441Z,22.1
2019-04-03T02:54:42.507Z,22.1
2019-04-03T02:55:26.335Z,22.1
2019-04-03T02:56:20.540Z,22.1
2019-04-03T02:57:07.067Z,22.1
2019-04-03T02:58:13.215Z,22.1
2019-04-03T02:58:47.104Z,22.1
2019-04-03T02:59:37.327Z,22.1
2019-04-03T03:00:31.441Z,22.1
2019-04-03T03:01:17.885Z,22.1
2019-04-03T03:02:11.233Z,22.1
2019-04-03T03:02:57.077Z,22.1
2019-04-03T03:03:52.473Z,22.1
2019-04-03T03:07:18.199Z,22.1
2019-04-03T03:08:12.533Z,22.1
2019-04-03T03:08:58.371Z,22.1
2019-04-03T03:09:54.116Z,22.1
2019-04-03T03:10:38.303Z,22.1
2019-04-03T03:11:32.223Z,22.1
2019-04-03T03:12:17.417Z,22.1
2019-04-03T03:13:09.830Z,22.1
2019-04-03T03:13:58.680Z,22.1
2019-04-03T03:14:48.724Z,22.1
2019-04-03T03:15:41.190Z,22.1
2019-04-03T03:16:28.473Z,22.1
2019-04-03T03:17:23.434Z,22.1
2019-04-03T03:18:09.449Z,22
2019-04-03T03:19:04.083Z,22
2019-04-03T03:19:49.054Z,22
2019-04-03T03:20:44.589Z,22
2019-04-03T03:21:29.021Z,22
2019-04-03T03:22:24.915Z,22
2019-04-03T03:23:08.099Z,22
2019-04-03T03:24:04.358Z,22
2019-04-03T03:24:48.853Z,22
2019-04-03T03:25:40.157Z,22
2019-04-03T03:26:28.662Z,22
2019-04-03T03:27:18.957Z,22
2019-04-03T03:28:09.001Z,22
2019-04-03T03:29:26.107Z,22
2019-04-03T03:29:49.440Z,22
2019-04-03T03:31:16.049Z,22
2019-04-03T03:32:52.078Z,22
2019-04-03T03:34:08.437Z,22
2019-04-03T03:35:56.556Z,22
2019-04-03T03:36:34.693Z,22
2019-04-03T03:37:16.578Z,22
2019-04-03T03:37:52.466Z,22
2019-04-03T03:38:48.757Z,22
2019-04-03T03:39:33.854Z,22
2019-04-03T03:40:23.907Z,22
2019-04-03T03:41:13.676Z,22
2019-04-03T03:42:06.673Z,22
2019-04-03T03:42:54.183Z,22
2019-04-03T03:43:46.833Z,22
2019-04-03T03:44:35.382Z,22
2019-04-03T03:45:28.820Z,21.9
2019-04-03T03:46:14.424Z,21.9
2019-04-03T03:47:09.226Z,21.9
2019-04-03T03:47:54.616Z,21.9
2019-04-03T03:48:52.518Z,22
2019-04-03T03:49:35.147Z,21.9
2019-04-03T03:50:32.486Z,21.9
2019-04-03T03:51:14.278Z,21.9
2019-04-03T03:52:11.069Z,22
2019-04-03T03:52:54.362Z,22
2019-04-03T03:53:51.420Z,22
2019-04-03T03:54:35.397Z,22
2019-04-03T03:55:31.195Z,22
2019-04-03T03:56:15.785Z,22
2019-04-03T03:57:12.380Z,21.9
2019-04-03T03:57:54.517Z,21.9
2019-04-03T03:58:50.811Z,21.9
2019-04-03T03:59:34.964Z,21.9
2019-04-03T04:00:30.353Z,22
2019-04-03T04:01:14.730Z,21.9
2019-04-03T04:02:11.746Z,22
2019-04-03T04:02:55.863Z,21.9
2019-04-03T04:03:49.934Z,21.9
2019-04-03T04:04:36.343Z,21.9
2019-04-03T04:05:30.483Z,21.9
2019-04-03T04:06:15.185Z,21.9
2019-04-03T04:07:11.223Z,21.9
2019-04-03T04:07:56.207Z,21.9
2019-04-03T04:08:51.615Z,21.9
2019-04-03T04:09:36.618Z,21.9
2019-04-03T04:10:37.213Z,21.9
2019-04-03T04:11:16.575Z,21.9
2019-04-03T04:12:11.989Z,21.9
2019-04-03T04:12:55.789Z,21.9
2019-04-03T04:13:52.687Z,21.9
2019-04-03T04:14:36.563Z,21.9
2019-04-03T04:15:32.498Z,21.9
2019-04-03T04:16:16.243Z,21.9
2019-04-03T04:17:20.643Z,21.9
2019-04-03T04:17:58.429Z,21.9
2019-04-03T04:18:47.183Z,21.9
2019-04-03T04:19:39.142Z,21.9
2019-04-03T04:20:27.165Z,21.9
2019-04-03T04:21:19.031Z,21.9
2019-04-03T04:22:07.634Z,21.9
2019-04-03T04:22:59.680Z,21.9
2019-04-03T04:23:46.498Z,21.9
2019-04-03T04:24:36.813Z,21.9
2019-04-03T04:25:30.281Z,21.9
2019-04-03T04:26:16.453Z,21.9
2019-04-03T04:27:09.725Z,21.9
2019-04-03T04:27:57.385Z,21.9
2019-04-03T04:28:48.046Z,21.9
2019-04-03T04:29:36.221Z,21.9
2019-04-03T04:30:26.821Z,21.9
2019-04-03T04:31:18.819Z,21.9
2019-04-03T04:32:07.852Z,21.9
2019-04-03T04:32:57.650Z,21.9
2019-04-03T04:33:50.317Z,21.9
2019-04-03T04:34:37.673Z,21.9
2019-04-03T04:35:29.490Z,21.9
2019-04-03T04:36:17.261Z,21.9
2019-04-03T04:37:09.796Z,21.9
2019-04-03T04:38:01.770Z,21.9
2019-04-03T04:38:47.182Z,21.9
2019-04-03T04:39:37.188Z,21.9
2019-04-03T04:40:27.304Z,21.9
2019-04-03T04:41:17.549Z,21.9
2019-04-03T04:42:11.751Z,21.9
2019-04-03T04:42:57.938Z,21.9
2019-04-03T04:43:48.598Z,21.9
2019-04-03T04:44:37.229Z,21.9
2019-04-03T04:45:28.076Z,21.9
2019-04-03T04:46:20.845Z,21.9
2019-04-03T04:47:08.243Z,21.9
2019-04-03T04:47:58.248Z,21.9
2019-04-03T04:48:47.388Z,21.9
2019-04-03T04:49:37.764Z,21.9
2019-04-03T04:50:31.766Z,21.9
2019-04-03T04:51:18.567Z,21.9
2019-04-03T04:52:08.950Z,21.9
2019-04-03T04:53:02.560Z,21.9
2019-04-03T04:53:48.271Z,21.9
2019-04-03T04:54:37.666Z,21.9
2019-04-03T04:55:36.007Z,21.9
2019-04-03T04:56:18.322Z,21.9
2019-04-03T04:57:11.265Z,21.9
2019-04-03T04:57:58.157Z,21.9
2019-04-03T04:58:50.405Z,21.9
2019-04-03T04:59:46.482Z,21.9
2019-04-03T05:00:31.950Z,21.9
2019-04-03T05:01:22.252Z,21.9
2019-04-03T05:02:09.449Z,21.9
2019-04-03T05:03:02.379Z,21.9
2019-04-03T05:03:49.543Z,21.9
2019-04-03T05:04:38.620Z,21.9
2019-04-03T05:05:35.901Z,21.9
2019-04-03T05:06:20.206Z,21.9
2019-04-03T05:07:10.389Z,21.9
2019-04-03T05:08:02.966Z,21.9
2019-04-03T05:08:49.714Z,21.9
2019-04-03T05:09:42.326Z,21.9
2019-04-03T05:10:29.612Z,21.9
2019-04-03T05:11:18.833Z,21.9
2019-04-03T05:12:13.484Z,21.9
2019-04-03T05:12:59.571Z,21.9
2019-04-03T05:13:52.879Z,21.9
2019-04-03T05:14:39.663Z,21.9
2019-04-03T05:15:31.559Z,21.9
2019-04-03T05:16:27.041Z,21.9
2019-04-03T05:17:09.475Z,21.9
2019-04-03T05:18:03.876Z,21.9
2019-04-03T05:18:50.009Z,21.9
2019-04-03T05:19:40.507Z,21.9
2019-04-03T05:20:31.252Z,21.9
2019-04-03T05:21:23.865Z,21.9
2019-04-03T05:22:10.588Z,21.9
2019-04-03T05:23:02.171Z,21.9
2019-04-03T05:23:50.499Z,21.9
2019-04-03T05:24:41.120Z,21.9
2019-04-03T05:25:34.525Z,21.9
2019-04-03T05:26:24.535Z,21.9
2019-04-03T05:27:14.118Z,21.9
2019-04-03T05:28:00.093Z,21.9
2019-04-03T05:29:06.403Z,21.9
2019-04-03T05:29:41.085Z,21.9
2019-04-03T05:30:30.663Z,21.9
2019-04-03T05:31:22.208Z,21.9
2019-04-03T05:32:15.930Z,21.9
2019-04-03T05:33:02.251Z,21.9
2019-04-03T05:33:51.010Z,21.9
2019-04-03T05:34:44.971Z,21.9
2019-04-03T05:35:31.643Z,21.9
2019-04-03T05:36:24.821Z,21.9
2019-04-03T05:37:18.000Z,21.9
2019-04-03T05:38:00.826Z,21.9
2019-04-03T05:38:56.747Z,21.9
2019-04-03T05:39:41.188Z,21.9
2019-04-03T05:40:32.914Z,21.9
2019-04-03T05:41:22.322Z,21.9
2019-04-03T05:42:12.325Z,21.9
2019-04-03T05:43:04.946Z,21.9
2019-04-03T05:43:51.724Z,21.8
2019-04-03T05:44:42.152Z,21.8
2019-04-03T05:45:35.689Z,21.8
2019-04-03T05:46:26.302Z,21.8
2019-04-03T05:47:14.259Z,21.8
2019-04-03T05:48:02.312Z,21.8
2019-04-03T05:48:55.147Z,21.9
2019-04-03T05:49:42.146Z,21.8
2019-04-03T05:50:37.624Z,21.8
2019-04-03T05:51:22.153Z,21.8
2019-04-03T05:52:11.798Z,21.8
2019-04-03T05:53:05.372Z,21.8
2019-04-03T05:53:55.512Z,21.8
2019-04-03T05:54:49.474Z,21.8
2019-04-03T05:55:32.915Z,21.8
2019-04-03T05:56:22.303Z,21.8
2019-04-03T05:57:15.826Z,21.8
2019-04-03T05:59:04.197Z,21.8
2019-04-03T05:59:16.314Z,21.8
2019-04-03T06:00:12.780Z,21.8
2019-04-03T06:01:15.826Z,21.9
2019-04-03T06:01:52.527Z,21.8
2019-04-03T06:02:35.924Z,21.8
2019-04-03T06:05:23.489Z,21.8
2019-04-03T06:06:07.716Z,21.8
2019-04-03T06:06:57.203Z,21.9
2019-04-03T06:07:50.573Z,21.9
2019-04-03T06:08:42.641Z,21.8
2019-04-03T06:09:30.328Z,21.8
2019-04-03T06:10:17.388Z,21.8
2019-04-03T06:11:15.509Z,21.9
2019-04-03T06:11:58.454Z,21.9
2019-04-03T06:12:52.621Z,21.8
2019-04-03T06:13:38.570Z,21.8
2019-04-03T06:14:30.083Z,21.8
2019-04-03T06:15:21.941Z,21.8
2019-04-03T06:16:09.231Z,21.8
2019-04-03T06:17:02.531Z,21.8
2019-04-03T06:17:56.318Z,21.8
2019-04-03T06:18:39.109Z,21.9
2019-04-03T06:19:28.366Z,21.8
2019-04-03T06:20:18.937Z,21.9
2019-04-03T06:21:09.425Z,21.9
2019-04-03T06:21:58.247Z,21.8
2019-04-03T06:22:53.267Z,21.8
2019-04-03T06:23:39.142Z,21.8
2019-04-03T06:24:32.192Z,21.8
2019-04-03T06:25:21.879Z,21.8
2019-04-03T06:26:10.053Z,21.8
2019-04-03T06:26:58.569Z,21.8
2019-04-03T06:27:51.619Z,21.9
2019-04-03T06:28:42.267Z,21.8
2019-04-03T06:29:29.682Z,21.8
2019-04-03T06:30:19.551Z,21.8
2019-04-03T06:31:12.265Z,21.8
2019-04-03T06:32:05.095Z,21.8
2019-04-03T06:32:50.052Z,21.8
2019-04-03T06:33:42.664Z,21.8
2019-04-03T06:34:29.639Z,21.8
2019-04-03T06:35:21.216Z,21.8
2019-04-03T06:36:10.237Z,21.8
2019-04-03T06:37:00.634Z,21.8
2019-04-03T06:37:53.525Z,21.8
2019-04-03T06:38:40.360Z,21.8
2019-04-03T06:39:38.843Z,21.8
2019-04-03T06:40:20.743Z,21.8
2019-04-03T06:41:13.914Z,21.8
2019-04-03T06:42:01.069Z,21.8
2019-04-03T06:42:51.913Z,21.8
2019-04-03T06:43:40.611Z,21.8
2019-04-03T06:44:30.424Z,21.8
2019-04-03T06:45:23.996Z,21.8
2019-04-03T06:46:11.354Z,21.8
2019-04-03T06:47:06.265Z,21.8
2019-04-03T06:47:51.256Z,21.8
2019-04-03T06:48:43.256Z,21.8
2019-04-03T06:49:31.592Z,21.8
2019-04-03T06:50:24.678Z,21.8
2019-04-03T06:51:10.860Z,21.8
2019-04-03T06:52:01.685Z,21.7
2019-04-03T06:52:54.236Z,21.7
2019-04-03T06:53:41.921Z,21.8
2019-04-03T06:54:35.230Z,21.7
2019-04-03T06:55:24.333Z,21.7
2019-04-03T06:56:14.640Z,21.7
2019-04-03T06:57:02.125Z,21.7
2019-04-03T06:57:51.974Z,21.7
2019-04-03T06:58:51.348Z,21.7
2019-04-03T06:59:31.664Z,21.7
2019-04-03T07:00:21.889Z,21.7
2019-04-03T07:01:11.337Z,21.7
2019-04-03T07:02:02.531Z,21.7
2019-04-03T07:02:52.049Z,21.6
2019-04-03T07:05:18.175Z,21.6
2019-04-03T07:06:07.747Z,21.6
2019-04-03T07:07:01.517Z,21.6
2019-04-03T07:07:47.947Z,21.6
2019-04-03T07:08:46.447Z,21.6
2019-04-03T07:09:43.337Z,21.6
2019-04-03T07:10:32.007Z,21.6
2019-04-03T07:11:07.487Z,21.6
2019-04-03T07:12:00.787Z,21.6
2019-04-03T07:12:51.580Z,21.6
2019-04-03T07:13:38.196Z,21.6
2019-04-03T07:14:31.818Z,21.6
2019-04-03T07:15:19.289Z,21.6
2019-04-03T07:16:08.749Z,21.6
2019-04-03T07:17:06.154Z,21.6
2019-04-03T07:17:48.433Z,21.6
2019-04-03T07:18:42.009Z,21.6
2019-04-03T07:19:28.901Z,21.6
2019-04-03T07:20:26.951Z,21.6
2019-04-03T07:21:08.593Z,21.6
2019-04-03T07:22:02.410Z,21.6
2019-04-03T07:22:49.565Z,21.6
2019-04-03T07:23:39.093Z,21.6
2019-04-03T07:24:28.194Z,21.6
2019-04-03T07:25:19.519Z,21.6
2019-04-03T07:26:11.955Z,21.6
2019-04-03T07:26:59.280Z,21.6
2019-04-03T07:27:49.734Z,21.6
2019-04-03T07:28:43.626Z,21.5
2019-04-03T07:29:32.824Z,21.5
2019-04-03T07:30:26.608Z,21.6
2019-04-03T07:31:09.886Z,21.5
2019-04-03T07:32:02.455Z,21.5
2019-04-03T07:32:49.523Z,21.6
2019-04-03T07:33:40.651Z,21.5
2019-04-03T07:34:30.191Z,21.5
2019-04-03T07:35:20.007Z,21.5
2019-04-03T07:36:13.939Z,21.5
2019-04-03T07:36:58.916Z,21.5
2019-04-03T07:37:54.173Z,21.5
2019-04-03T07:38:39.898Z,21.5
2019-04-03T07:39:29.359Z,21.5
2019-04-03T07:40:23.433Z,21.5
2019-04-03T07:41:10.439Z,21.5
2019-04-03T07:42:02.056Z,21.5
2019-04-03T07:42:50.106Z,21.5
2019-04-03T07:43:40.788Z,21.5
2019-04-03T07:44:34.729Z,21.5
2019-04-03T07:45:19.941Z,21.5
2019-04-03T07:46:10.792Z,21.5
2019-04-03T07:47:06.476Z,21.5
2019-04-03T07:47:50.104Z,21.4
2019-04-03T07:48:44.661Z,21.4
2019-04-03T07:49:30.048Z,21.4
2019-04-03T07:50:21.635Z,21.5
2019-04-03T07:51:13.862Z,21.4
2019-04-03T07:52:00.958Z,21.4
2019-04-03T07:52:55.194Z,21.4
2019-04-03T07:53:40.684Z,21.4
2019-04-03T07:54:33.577Z,21.4
2019-04-03T07:55:20.292Z,21.4
2019-04-03T07:56:11.014Z,21.4
2019-04-03T07:57:03.966Z,21.4
2019-04-03T07:57:51.279Z,21.4
2019-04-03T07:58:41.605Z,21.4
2019-04-03T07:59:35.900Z,21.4
2019-04-03T08:00:22.059Z,21.4
2019-04-03T08:01:20.305Z,21.4
2019-04-03T08:02:02.377Z,21.4
2019-04-03T08:02:56.948Z,21.4
2019-04-03T08:03:42.977Z,21.4
2019-04-03T08:05:45.031Z,21.4
2019-04-03T08:06:05.434Z,21.4
2019-04-03T08:06:46.846Z,21.4
2019-04-03T08:07:36.659Z,21.4
2019-04-03T08:08:28.116Z,21.4
2019-04-03T08:09:18.120Z,21.4
2019-04-03T08:10:08.341Z,21.4
2019-04-03T08:10:58.020Z,21.4
2019-04-03T08:11:46.617Z,21.4
2019-04-03T08:12:42.291Z,21.4
2019-04-03T08:13:27.771Z,21.4
2019-04-03T08:14:21.245Z,21.4
2019-04-03T08:15:07.616Z,21.4
2019-04-03T08:15:58.180Z,21.4
2019-04-03T08:16:57.271Z,21.4
2019-04-03T08:17:37.535Z,21.4
2019-04-03T08:18:29.561Z,21.4
2019-04-03T08:19:18.446Z,21.4
2019-04-03T08:20:08.654Z,21.4
2019-04-03T08:21:05.942Z,21.4
2019-04-03T08:21:48.556Z,21.4
2019-04-03T08:22:42.201Z,21.4
2019-04-03T08:23:28.231Z,21.3
2019-04-03T08:24:18.856Z,21.4
2019-04-03T08:25:13.568Z,21.3
2019-04-03T08:26:01.797Z,21.3
2019-04-03T08:26:52.831Z,21.3
2019-04-03T08:27:38.565Z,21.4
2019-04-03T08:28:36.575Z,21.3
2019-04-03T08:29:19.371Z,21.3
2019-04-03T08:30:13.901Z,21.3
2019-04-03T08:30:59.046Z,21.3
2019-04-03T08:31:55.293Z,21.3
2019-04-03T08:32:40.254Z,21.3
2019-04-03T08:33:37.463Z,21.3
2019-04-03T08:34:25.124Z,21.3
2019-04-03T08:35:29.792Z,21.3
2019-04-03T08:36:00.573Z,21.3
2019-04-03T08:36:49.803Z,21.3
2019-04-03T08:37:45.031Z,21.3
2019-04-03T08:38:30.701Z,21.3
2019-04-03T08:39:24.392Z,21.3
2019-04-03T08:40:09.597Z,21.3
2019-04-03T08:41:05.757Z,21.3
2019-04-03T08:41:50.220Z,21.3
2019-04-03T08:42:40.658Z,21.3
2019-04-03T08:43:34.359Z,21.3
2019-04-03T08:44:19.512Z,21.3
2019-04-03T08:45:14.947Z,21.3
2019-04-03T08:46:00.610Z,21.3
2019-04-03T08:46:51.965Z,21.3
2019-04-03T08:47:48.512Z,21.3
2019-04-03T08:48:30.017Z,21.3
2019-04-03T08:49:20.265Z,21.3
2019-04-03T08:50:10.691Z,21.3
2019-04-03T08:51:07.153Z,21.3
2019-04-03T08:51:50.765Z,21.3
2019-04-03T08:52:45.418Z,21.3
2019-04-03T08:53:30.682Z,21.3
2019-04-03T08:54:21.177Z,21.3
2019-04-03T08:55:15.131Z,21.3
2019-04-03T08:56:03.512Z,21.3
2019-04-03T08:56:54.506Z,21.3
2019-04-03T08:57:41.561Z,21.3
2019-04-03T08:58:34.199Z,21.3
2019-04-03T08:59:21.559Z,21.3
2019-04-03T09:00:11.892Z,21.3
2019-04-03T09:01:04.484Z,21.3
2019-04-03T09:01:51.906Z,21.3
2019-04-03T09:02:45.886Z,21.3
2019-04-03T09:03:30.409Z,21.3
2019-04-03T09:04:24.764Z,21.3
2019-04-03T09:05:21.215Z,21.3
2019-04-03T09:06:03.668Z,21.3
2019-04-03T09:06:55.909Z,21.3
2019-04-03T09:07:42.759Z,21.3
2019-04-03T09:08:33.624Z,21.3
2019-04-03T09:09:20.113Z,21.3
2019-04-03T09:10:11.871Z,21.3
2019-04-03T09:11:05.490Z,21.3
2019-04-03T09:11:51.445Z,21.3
2019-04-03T09:12:44.936Z,21.3
2019-04-03T09:13:31.823Z,21.3
2019-04-03T09:14:28.620Z,21.2
2019-04-03T09:15:12.386Z,21.2
2019-04-03T09:16:06.410Z,21.3
2019-04-03T09:16:52.911Z,21.2
2019-04-03T09:17:43.007Z,21.3
2019-04-03T09:18:39.266Z,21.3
2019-04-03T09:19:24.176Z,21.2
2019-04-03T09:20:16.365Z,21.3
2019-04-03T09:21:02.601Z,21.3
2019-04-03T09:21:57.591Z,21.3
2019-04-03T09:22:42.178Z,21.3
2019-04-03T09:23:32.426Z,21.3
2019-04-03T09:24:22.850Z,21.3
2019-04-03T09:25:16.423Z,21.3
2019-04-03T09:26:06.517Z,21.3
2019-04-03T09:26:52.467Z,21.3
2019-04-03T09:27:46.802Z,21.3
2019-04-03T09:28:33.227Z,21.3
2019-04-03T09:29:21.867Z,21.3
2019-04-03T09:30:17.387Z,21.3
2019-04-03T09:31:03.546Z,21.3
2019-04-03T09:32:00.867Z,21.3
2019-04-03T09:32:44.272Z,21.3
2019-04-03T09:33:36.566Z,21.3
2019-04-03T09:34:31.129Z,21.3
2019-04-03T09:35:14.096Z,21.3
2019-04-03T09:36:11.309Z,21.3
2019-04-03T09:36:53.610Z,21.3
2019-04-03T09:37:48.992Z,21.3
2019-04-03T09:38:41.877Z,21.3
2019-04-03T09:39:24.085Z,21.3
2019-04-03T09:40:18.399Z,21.3
2019-04-03T09:41:04.039Z,21.3
2019-04-03T09:41:55.896Z,21.3
2019-04-03T09:42:42.729Z,21.3
2019-04-03T09:43:34.886Z,21.2
2019-04-03T09:44:27.532Z,21.3
2019-04-03T09:45:13.132Z,21.3
2019-04-03T09:46:07.229Z,21.2
2019-04-03T09:46:54.091Z,21.3
2019-04-03T09:47:43.799Z,21.3
2019-04-03T09:48:34.822Z,21.2
2019-04-03T09:49:25.490Z,21.2
2019-04-03T09:50:18.758Z,21.2
2019-04-03T09:51:04.794Z,21.2
2019-04-03T09:51:59.805Z,21.3
2019-04-03T09:53:04.004Z,21.3
2019-04-03T09:53:34.959Z,21.3
2019-04-03T09:54:29.606Z,21.3
2019-04-03T09:55:14.753Z,21.3
2019-04-03T09:56:09.813Z,21.3
2019-04-03T09:57:12.046Z,21.3
2019-04-03T09:57:46.091Z,21.3
2019-04-03T09:58:39.045Z,21.3
2019-04-03T09:59:25.924Z,21.3
2019-04-03T10:00:18.785Z,21.3
2019-04-03T10:01:05.521Z,21.2
2019-04-03T10:01:55.968Z,21.3
2019-04-03T10:02:45.906Z,21.2
2019-04-03T10:03:38.671Z,21.3
2019-04-03T10:06:35.660Z,21.3
2019-04-03T10:07:10.509Z,21.3
2019-04-03T10:07:58.813Z,21.3
2019-04-03T10:08:48.573Z,21.3
2019-04-03T10:09:47.245Z,21.3
2019-04-03T10:10:30.824Z,21.3
2019-04-03T10:11:41.213Z,21.3
2019-04-03T10:12:08.720Z,21.3
2019-04-03T10:13:00.985Z,21.3
2019-04-03T10:13:49.363Z,21.3
2019-04-03T10:14:38.738Z,21.3
2019-04-03T10:15:32.482Z,21.3
2019-04-03T10:16:22.438Z,21.3
2019-04-03T10:17:14.215Z,21.3
2019-04-03T10:17:58.793Z,21.3
2019-04-03T10:18:50.797Z,21.3
2019-04-03T10:19:38.984Z,21.3
2019-04-03T10:20:29.288Z,21.3
2019-04-03T10:21:38.546Z,21.3
2019-04-03T10:22:09.690Z,21.3
2019-04-03T10:23:02.600Z,21.3
2019-04-03T10:23:48.270Z,21.3
2019-04-03T10:24:40.406Z,21.3
2019-04-03T10:25:29.952Z,21.3
2019-04-03T10:26:19.117Z,21.3
2019-04-03T10:27:13.414Z,21.3
2019-04-03T10:27:59.471Z,21.3
2019-04-03T10:28:55.090Z,21.3
2019-04-03T10:29:56.599Z,21.3
2019-04-03T10:30:30.700Z,21.3
2019-04-03T10:31:20.082Z,21.3
2019-04-03T10:32:10.149Z,21.3
2019-04-03T10:33:04.331Z,21.3
2019-04-03T10:33:49.708Z,21.3
2019-04-03T10:34:42.811Z,21.3
2019-04-03T10:35:47.805Z,21.3
2019-04-03T10:36:34.221Z,21.3
2019-04-03T10:37:10.277Z,21.3
2019-04-03T10:38:00.855Z,21.3
2019-04-03T10:39:05.102Z,21.3
2019-04-03T10:39:47.319Z,21.3
2019-04-03T10:40:32.032Z,21.3
2019-04-03T10:41:20.537Z,21.3
2019-04-03T10:42:11.291Z,21.3
2019-04-03T10:43:09.552Z,21.3
2019-04-03T10:43:51.058Z,21.3
2019-04-03T10:44:40.516Z,21.3
2019-04-03T10:45:30.583Z,21.3
2019-04-03T10:46:24.686Z,21.3
2019-04-03T10:47:10.535Z,21.3
2019-04-03T10:48:03.355Z,21.3
2019-04-03T10:48:50.493Z,21.3
2019-04-03T10:49:41.443Z,21.3
2019-04-03T10:50:31.648Z,21.3
2019-04-03T10:51:21.393Z,21.3
2019-04-03T10:52:15.195Z,21.3
2019-04-03T10:53:01.131Z,21.3
2019-04-03T10:53:56.201Z,21.3
2019-04-03T10:54:44.679Z,21.3
2019-04-03T10:55:35.769Z,21.3
2019-04-03T10:56:21.189Z,21.3
2019-04-03T10:57:11.728Z,21.3
2019-04-03T10:58:11.193Z,21.3
2019-04-03T10:59:12.979Z,21.3
2019-04-03T10:59:42.060Z,21.3
2019-04-03T11:00:35.365Z,21.4
2019-04-03T11:01:21.496Z,21.3
2019-04-03T11:02:12.070Z,21.3
2019-04-03T11:03:01.338Z,21.4
2019-04-03T11:03:50.842Z,21.3
2019-04-03T11:04:40.550Z,21.4
2019-04-03T11:05:32.604Z,21.3
2019-04-03T11:06:22.863Z,21.3
2019-04-03T11:07:11.232Z,21.3
2019-04-03T11:08:02.030Z,21.4
2019-04-03T11:08:52.588Z,21.4
2019-04-03T11:09:42.352Z,21.4
2019-04-03T11:10:33.226Z,21.4
2019-04-03T11:11:22.716Z,21.4
2019-04-03T11:12:15.805Z,21.4
2019-04-03T11:13:06.448Z,21.4
2019-04-03T11:13:52.434Z,21.4
2019-04-03T11:14:46.531Z,21.4
2019-04-03T11:15:33.666Z,21.4
2019-04-03T11:16:23.063Z,21.4
2019-04-03T11:17:30.571Z,21.4
2019-04-03T11:18:03.754Z,21.4
2019-04-03T11:19:28.275Z,21.4
2019-04-03T11:19:48.904Z,21.4